Webcam 1 more information Webcam 1


Webcam 2 more information Webcam 2


altri nostri siti meteo:

Pomeziameteo 1Sito sul meteo

Pomeziameteo DashboardSito sul meteo

Caput FrigorisSito sul meteo

BarcellonameteoSito sul meteo

MeteoipassiSito sul meteo

ViterbometeoSito sul meteo

MeteotortoretoSito sul meteo

Stazione LineameteoSito sul meteo



Problemi di comunicazione, Vai direttamente al sito di Meteoalarm : www.meteoalarm.eu e controlla gli allarmi .

Report METAR

   
LIBP - Pescara
Dati ricevuti: 21-05-2024 06:20
Coperto  
Coperto  
   Vento: Variabile 1.9 km/h
Vento: Variabile 1.9 km/h
Temperatura: 19°C
P.to Rugiada: 19°C
Umidita: 100%
Barometro: 1004 hPa
Nuvole: Coperto
Visibilita: oltre 10 km
dettagli cloud: Molto nuvoloso 800 ft,
Coperto 1800 ft
LIBP 210420Z AUTO VRB01KT 9999 BKN008/// OVC018/// 19/19 Q1004
LIRZ - Perugia
Dati ricevuti: 21-05-2024 06:20
Pioggia, Molto nuvoloso  
Pioggia, Molto nuvoloso  
   Vento: NO 7.4 km/h
Vento: NO 7.4 km/h
Temperatura: 17°C
P.to Rugiada: 17°C
Umidita: 100%
Barometro: 1005 hPa
Nuvole: Molto nuvoloso
Visibilita: 6 km
dettagli cloud: Parzialmente nuvoloso 1700 ft,
Molto nuvoloso 3200 ft
LIRZ 210420Z AUTO 31004KT 250V360 6000 RA SCT017/// BKN032/// 17/17 Q1005
LIQN - Rieti
Dati ricevuti: 20-05-2024 19:50
DATI Obsoleti
Sereno  
Sereno  
   Vento: SW 9.3 km/h
Vento: SW 9.3 km/h
Temperatura: 21°C
P.to Rugiada: 18°C
Umidita: 83%
Barometro: 1007 hPa
Visibilita: oltre 10 km
dettagli cloud: Sereno
LIQN 201750Z 23005KT 210V270 CAVOK 21/18 Q1007
LIPY - Falconara
Dati ricevuti: 21-05-2024 06:20
Pioggia, Coperto  
Pioggia, Coperto  
   Vento: W 9.3 km/h
Vento: W 9.3 km/h
Temperatura: 19°C
P.to Rugiada: 18°C
Umidita: 94%
Barometro: 1005 hPa
Nuvole: Coperto
Visibilita: 5 km
dettagli cloud: Coperto 1000 ft
LIPY 210420Z AUTO 30005KT 280V340 5000 RA OVC010/// 19/18 Q1005 REDZ
  

Script sviluppato da  Saratoga-weather.org Adattato per il modello da  Weerstation Leuven

Potete trovare le nostre info meteo anche a:

Weather Underground

AWEKAS

Citizen Weather Observer Program (CWOP)

HAMweather, WeatherForYou, PWS Weather

Strumentazione usata:

Stazione meteo
Oregon 928

Programma gestore dati meteo
WVIEW

Server per i dati meteo
Pc-WDS5

Oregon 928

WVIEW

Pc-WDS5